Tickhill, United Kingdom
Current Conditions -  °F | °C
As of 10:20 PM on Saturday 20 Dec 2014 (Local Time) from EGCN Reporting Station
Overcast Overcast  
Wind Chill: 44°   Ceiling: 3800
Heat Index: 48°   Visibility: 6mi
Dew Point: 41°   Wind: 9mph
Humidity: 76%   Direction: 240°WSW
Pressure: 30.36"   Gusts: NA
Location:  53.43°N, 1.11°W
Report Text: EGCN 202220Z 24008KT 9999 FEW025 SCT033 OVC038 09/05 Q1028
Loading
Personal Weather Stations






























Interactive Weather Map New forecast layout! Learn more

10-Day Weather Forecast

Advertisements
Track Severe Weather on mobile